Time;durP1;ratioP1;P1;durP2;ratioP2;P2;SDS_P1;SDS_P2;PMS_P1;PMS_P2;Temp;Humidity;BMP_temperature;BMP_pressure;BME280_temperature;BME280_humidity;BME280_pressure;Samples;Min_cycle;Max_cycle;Signal;HPM_P1;HPM_P2
2021/10/08 00:01:05;;;;;;;4.00;2.90;;;;;;;;;;5082974;28;20785;-81
2021/10/08 00:03:32;;;;;;;8.57;4.23;;;;;;;;;;5087315;28;20468;-81
2021/10/08 00:06:00;;;;;;;4.43;3.57;;;;;;;;;;5087292;28;20441;-81
2021/10/08 00:08:27;;;;;;;3.03;2.50;;;;;;;;;;5087748;28;20510;-81
2021/10/08 00:10:54;;;;;;;5.57;3.63;;;;;;;;;;5088422;28;20449;-81
2021/10/08 00:13:21;;;;;;;5.50;3.33;;;;;;;;;;5086874;28;20472;-81
2021/10/08 00:15:48;;;;;;;4.70;3.50;;;;;;;;;;5085787;28;20567;-81
2021/10/08 00:18:15;;;;;;;6.17;4.60;;;;;;;;;;5087299;28;20452;-81
2021/10/08 00:20:42;;;;;;;5.30;3.63;;;;;;;;;;5086395;28;20891;-81
2021/10/08 00:23:09;;;;;;;5.50;3.67;;;;;;;;;;5084987;28;20473;-81
2021/10/08 00:25:39;;;;;;;4.43;3.53;;;;;;;;;;5081701;28;20535;-81
2021/10/08 00:28:06;;;;;;;6.37;3.80;;;;;;;;;;5082578;28;20463;-81
2021/10/08 00:30:33;;;;;;;5.60;2.83;;;;;;;;;;5082146;28;20447;-82
2021/10/08 00:33:00;;;;;;;3.77;3.17;;;;;;;;;;5086687;28;20476;-82
2021/10/08 00:35:27;;;;;;;5.83;3.30;;;;;;;;;;5087608;28;20453;-82
2021/10/08 00:37:54;;;;;;;4.80;3.10;;;;;;;;;;5087786;28;20468;-81
2021/10/08 00:40:22;;;;;;;4.50;3.20;;;;;;;;;;5085882;28;20791;-81
2021/10/08 00:42:49;;;;;;;5.87;2.63;;;;;;;;;;5088100;28;21016;-81
2021/10/08 00:45:17;;;;;;;6.70;3.90;;;;;;;;;;5086527;28;20494;-82
2021/10/08 00:47:43;;;;;;;5.23;3.30;;;;;;;;;;5089091;28;20518;-81
2021/10/08 00:50:11;;;;;;;4.30;3.10;;;;;;;;;;5087806;28;20468;-82
2021/10/08 00:52:38;;;;;;;4.57;3.40;;;;;;;;;;5085357;28;20547;-81
2021/10/08 00:55:05;;;;;;;4.87;2.97;;;;;;;;;;5087651;28;20456;-80
2021/10/08 00:57:33;;;;;;;5.00;3.47;;;;;;;;;;5085830;28;20637;-81
2021/10/08 01:00:02;;;;;;;6.63;3.23;;;;;;;;;;5084964;28;20476;-81
2021/10/08 01:02:29;;;;;;;6.83;3.40;;;;;;;;;;5087080;28;20448;-81
2021/10/08 01:04:56;;;;;;;7.00;4.30;;;;;;;;;;5085259;28;20512;-81
2021/10/08 01:07:23;;;;;;;5.70;3.87;;;;;;;;;;5087169;28;20460;-82
2021/10/08 01:09:50;;;;;;;6.43;3.87;;;;;;;;;;5085654;28;20459;-81
2021/10/08 01:12:17;;;;;;;4.30;2.70;;;;;;;;;;5086583;28;20748;-81
2021/10/08 01:14:45;;;;;;;8.33;4.37;;;;;;;;;;5087897;28;20472;-80
2021/10/08 01:17:13;;;;;;;4.93;3.27;;;;;;;;;;5085653;28;20574;-81
2021/10/08 01:19:39;;;;;;;7.27;3.03;;;;;;;;;;5087802;28;20449;-81
2021/10/08 01:22:07;;;;;;;4.90;2.83;;;;;;;;;;5085389;28;20456;-81
2021/10/08 01:24:35;;;;;;;8.03;3.17;;;;;;;;;;5086601;28;20789;-81
2021/10/08 01:27:02;;;;;;;3.03;2.50;;;;;;;;;;5086057;28;20452;-81
2021/10/08 01:29:29;;;;;;;4.77;3.37;;;;;;;;;;5089014;28;20448;-80
2021/10/08 01:31:56;;;;;;;5.37;2.80;;;;;;;;;;5090978;28;20527;-81
2021/10/08 01:34:23;;;;;;;7.80;4.90;;;;;;;;;;5090070;28;20451;-81
2021/10/08 01:36:50;;;;;;;4.50;3.20;;;;;;;;;;5091010;28;20484;-81
2021/10/08 01:39:18;;;;;;;6.40;4.10;;;;;;;;;;5090585;28;20494;-80
2021/10/08 01:41:45;;;;;;;3.70;2.70;;;;;;;;;;5090326;28;20520;-81
2021/10/08 01:44:12;;;;;;;3.90;2.73;;;;;;;;;;5090210;28;20471;-81
2021/10/08 01:46:39;;;;;;;4.60;2.90;;;;;;;;;;5089729;28;20456;-81
2021/10/08 01:49:06;;;;;;;5.00;3.50;;;;;;;;;;5090091;28;20518;-80
2021/10/08 01:51:33;;;;;;;5.30;3.77;;;;;;;;;;5090218;28;20477;-80
2021/10/08 01:54:00;;;;;;;5.87;3.13;;;;;;;;;;5088119;28;20503;-82
2021/10/08 01:56:29;;;;;;;3.90;2.90;;;;;;;;;;5089693;28;20888;-81
2021/10/08 01:58:56;;;;;;;6.07;4.07;;;;;;;;;;5088438;28;20473;-81
2021/10/08 02:01:25;;;;;;;4.07;2.97;;;;;;;;;;5089560;28;20475;-80
2021/10/08 02:03:52;;;;;;;3.43;2.43;;;;;;;;;;5090415;28;20460;-81
2021/10/08 02:06:19;;;;;;;5.00;2.80;;;;;;;;;;5088226;28;20461;-81
2021/10/08 02:08:46;;;;;;;4.50;3.10;;;;;;;;;;5091583;28;20531;-81
2021/10/08 02:11:13;;;;;;;6.70;3.43;;;;;;;;;;5089576;28;20484;-81
2021/10/08 02:13:41;;;;;;;4.40;2.70;;;;;;;;;;5089219;28;20476;-81
2021/10/08 02:16:08;;;;;;;6.00;3.20;;;;;;;;;;5090757;28;20523;-80
2021/10/08 02:18:35;;;;;;;3.80;3.10;;;;;;;;;;5089137;28;20449;-80
2021/10/08 02:21:03;;;;;;;7.33;3.27;;;;;;;;;;5090201;28;20485;-80
2021/10/08 02:23:30;;;;;;;5.00;3.90;;;;;;;;;;5090326;28;20424;-80
2021/10/08 02:25:57;;;;;;;6.17;4.10;;;;;;;;;;5089820;28;20483;-81
2021/10/08 02:28:24;;;;;;;8.90;4.70;;;;;;;;;;5090290;28;20553;-81
2021/10/08 02:30:51;;;;;;;4.60;3.07;;;;;;;;;;5089020;28;20473;-81
2021/10/08 02:33:18;;;;;;;4.50;3.20;;;;;;;;;;5090288;28;20539;-80
2021/10/08 02:35:45;;;;;;;4.87;3.33;;;;;;;;;;5090123;28;20504;-82
2021/10/08 02:38:12;;;;;;;6.37;4.57;;;;;;;;;;5090022;28;20505;-81
2021/10/08 02:40:39;;;;;;;4.20;3.27;;;;;;;;;;5090065;28;20443;-81
2021/10/08 02:43:06;;;;;;;4.87;3.80;;;;;;;;;;5088261;28;20456;-82
2021/10/08 02:45:33;;;;;;;4.43;3.23;;;;;;;;;;5089366;28;20913;-81
2021/10/08 02:48:01;;;;;;;6.57;3.80;;;;;;;;;;5088909;28;20457;-82
2021/10/08 02:50:28;;;;;;;4.60;2.87;;;;;;;;;;5089244;28;20437;-81
2021/10/08 02:52:55;;;;;;;4.30;3.03;;;;;;;;;;5089895;28;20496;-83
2021/10/08 02:55:22;;;;;;;5.93;2.57;;;;;;;;;;5088904;28;20472;-81
2021/10/08 02:57:49;;;;;;;4.63;3.17;;;;;;;;;;5090025;28;20547;-81
2021/10/08 03:00:17;;;;;;;4.97;2.60;;;;;;;;;;5087101;28;20494;-81
2021/10/08 03:02:44;;;;;;;2.87;2.53;;;;;;;;;;5088644;28;20730;-81
2021/10/08 03:05:12;;;;;;;3.53;2.53;;;;;;;;;;5086235;28;20496;-80
2021/10/08 03:07:39;;;;;;;4.03;2.90;;;;;;;;;;5083127;28;20613;-80
2021/10/08 03:10:07;;;;;;;4.17;2.87;;;;;;;;;;5085952;28;20456;-79
2021/10/08 03:12:34;;;;;;;4.57;3.23;;;;;;;;;;5084558;28;20476;-80
2021/10/08 03:15:00;;;;;;;4.57;3.37;;;;;;;;;;5084919;28;20459;-80
2021/10/08 03:17:27;;;;;;;5.50;4.10;;;;;;;;;;5085542;28;20582;-80
2021/10/08 03:19:54;;;;;;;6.80;4.03;;;;;;;;;;5084027;28;20500;-79
2021/10/08 03:22:22;;;;;;;5.80;4.03;;;;;;;;;;5085035;28;20520;-81
2021/10/08 03:24:49;;;;;;;5.63;4.13;;;;;;;;;;5083843;28;20598;-81
2021/10/08 03:27:16;;;;;;;6.50;4.10;;;;;;;;;;5084823;28;20854;-81
2021/10/08 03:29:43;;;;;;;5.97;4.57;;;;;;;;;;5086247;28;20459;-80
2021/10/08 03:32:13;;;;;;;6.57;4.07;;;;;;;;;;5083980;28;20440;-81
2021/10/08 03:34:40;;;;;;;6.13;4.10;;;;;;;;;;5085786;28;20459;-81
2021/10/08 03:37:09;;;;;;;4.13;2.97;;;;;;;;;;5082831;28;20520;-81
2021/10/08 03:39:39;;;;;;;3.90;2.80;;;;;;;;;;5084360;28;20448;-81
2021/10/08 03:42:09;;;;;;;5.20;3.90;;;;;;;;;;5085551;28;20464;-81
2021/10/08 03:44:38;;;;;;;4.07;2.97;;;;;;;;;;5084119;28;20479;-81
2021/10/08 03:47:14;;;;;;;6.47;2.30;;;;;;;;;;5084128;28;20460;-81
2021/10/08 03:49:41;;;;;;;5.90;2.60;;;;;;;;;;5083583;28;20730;-81
2021/10/08 03:52:08;;;;;;;5.23;3.00;;;;;;;;;;5083263;28;21005;-81
2021/10/08 03:54:35;;;;;;;4.40;2.57;;;;;;;;;;5083430;28;20488;-81
2021/10/08 03:57:03;;;;;;;8.33;5.33;;;;;;;;;;5084080;28;20594;-81
2021/10/08 03:59:30;;;;;;;4.10;3.13;;;;;;;;;;5083727;28;20759;-81
2021/10/08 04:01:57;;;;;;;10.60;3.47;;;;;;;;;;5084797;28;20519;-81
2021/10/08 04:04:25;;;;;;;5.53;3.23;;;;;;;;;;5084389;28;20537;-79
2021/10/08 04:06:52;;;;;;;6.30;2.90;;;;;;;;;;5084173;28;20476;-78
2021/10/08 04:09:19;;;;;;;5.50;3.77;;;;;;;;;;5083952;28;20778;-80
2021/10/08 04:11:46;;;;;;;5.20;3.03;;;;;;;;;;5084936;28;20533;-80
2021/10/08 04:14:14;;;;;;;10.03;2.50;;;;;;;;;;5084028;28;20518;-78
2021/10/08 04:16:41;;;;;;;4.10;2.60;;;;;;;;;;5084046;28;20515;-79
2021/10/08 04:19:08;;;;;;;3.97;2.27;;;;;;;;;;5084559;28;20512;-80
2021/10/08 04:21:35;;;;;;;4.83;3.00;;;;;;;;;;5084535;28;20463;-80
2021/10/08 04:24:02;;;;;;;3.60;2.87;;;;;;;;;;5087218;28;20462;-81
2021/10/08 04:26:29;;;;;;;4.73;2.87;;;;;;;;;;5086351;28;20461;-80
2021/10/08 04:28:58;;;;;;;4.17;3.10;;;;;;;;;;5085288;28;20506;-81
2021/10/08 04:31:27;;;;;;;3.20;2.53;;;;;;;;;;5087145;28;20440;-79
2021/10/08 04:33:54;;;;;;;2.80;2.50;;;;;;;;;;5085924;28;20452;-79
2021/10/08 04:36:21;;;;;;;7.70;4.70;;;;;;;;;;5085375;28;20553;-80
2021/10/08 04:38:48;;;;;;;4.90;3.70;;;;;;;;;;5088080;28;20506;-82
2021/10/08 04:41:15;;;;;;;4.50;3.53;;;;;;;;;;5087122;28;20456;-81
2021/10/08 04:43:42;;;;;;;8.30;5.70;;;;;;;;;;5086447;28;20480;-81
2021/10/08 04:46:11;;;;;;;7.77;3.10;;;;;;;;;;5085828;28;20464;-81
2021/10/08 04:48:39;;;;;;;5.37;3.93;;;;;;;;;;5085623;28;20432;-81
2021/10/08 04:51:06;;;;;;;4.97;3.70;;;;;;;;;;5087039;28;20530;-81
2021/10/08 04:53:33;;;;;;;8.67;5.37;;;;;;;;;;5086756;28;20712;-82
2021/10/08 04:56:00;;;;;;;5.97;4.60;;;;;;;;;;5087568;28;20495;-81
2021/10/08 04:58:27;;;;;;;5.03;2.73;;;;;;;;;;5085567;28;20483;-82
2021/10/08 05:00:54;;;;;;;4.30;2.57;;;;;;;;;;5086306;28;20973;-81
2021/10/08 05:03:21;;;;;;;3.40;2.80;;;;;;;;;;5086926;28;20501;-81
2021/10/08 05:05:51;;;;;;;4.97;3.90;;;;;;;;;;5089676;28;20444;-81
2021/10/08 05:08:18;;;;;;;9.03;3.17;;;;;;;;;;5089605;28;20452;-82
2021/10/08 05:10:45;;;;;;;5.37;3.30;;;;;;;;;;5099173;28;20909;-81
2021/10/08 05:13:13;;;;;;;5.57;3.13;;;;;;;;;;5110786;28;20859;-81
2021/10/08 05:15:40;;;;;;;4.23;3.30;;;;;;;;;;5110658;28;20603;-81
2021/10/08 05:18:07;;;;;;;4.47;3.00;;;;;;;;;;5108621;28;20834;-81
2021/10/08 05:20:34;;;;;;;4.43;3.73;;;;;;;;;;5109300;28;20470;-79
2021/10/08 05:23:02;;;;;;;4.53;2.87;;;;;;;;;;5107748;28;20452;-79
2021/10/08 05:25:29;;;;;;;4.73;3.20;;;;;;;;;;5108337;28;20479;-81
2021/10/08 05:27:57;;;;;;;7.43;3.40;;;;;;;;;;5106891;28;20490;-82
2021/10/08 05:30:26;;;;;;;12.27;4.87;;;;;;;;;;5104258;28;20481;-80
2021/10/08 05:32:56;;;;;;;28.90;5.77;;;;;;;;;;5105514;28;20931;-79
2021/10/08 05:35:23;;;;;;;8.63;5.27;;;;;;;;;;5104830;28;20716;-79
2021/10/08 05:37:50;;;;;;;12.63;5.70;;;;;;;;;;5105956;28;20509;-80
2021/10/08 05:40:18;;;;;;;11.13;3.40;;;;;;;;;;5106270;28;20447;-81
2021/10/08 05:42:45;;;;;;;11.10;5.43;;;;;;;;;;5105731;28;20906;-80
2021/10/08 05:45:12;;;;;;;7.50;3.90;;;;;;;;;;5106791;28;20470;-81
2021/10/08 05:47:39;;;;;;;8.80;4.93;;;;;;;;;;5106387;28;20455;-80
2021/10/08 05:50:06;;;;;;;7.37;4.50;;;;;;;;;;5105726;28;20505;-81
2021/10/08 05:52:33;;;;;;;7.10;5.13;;;;;;;;;;5103922;28;20480;-80
2021/10/08 05:55:00;;;;;;;8.00;4.17;;;;;;;;;;5104127;28;20455;-81
2021/10/08 05:57:28;;;;;;;9.77;5.53;;;;;;;;;;5105956;28;20511;-80
2021/10/08 05:59:55;;;;;;;10.30;7.00;;;;;;;;;;5105654;28;20448;-80
2021/10/08 06:02:23;;;;;;;8.37;6.30;;;;;;;;;;5105467;28;20456;-81
2021/10/08 06:04:50;;;;;;;9.30;6.00;;;;;;;;;;5105404;28;20454;-80
2021/10/08 06:07:17;;;;;;;9.37;5.53;;;;;;;;;;5106764;28;20466;-81
2021/10/08 06:09:46;;;;;;;7.83;5.10;;;;;;;;;;5105293;28;20880;-80
2021/10/08 06:12:13;;;;;;;9.97;5.63;;;;;;;;;;5105400;28;20969;-78
2021/10/08 06:14:41;;;;;;;12.77;9.17;;;;;;;;;;5102426;28;20757;-79
2021/10/08 06:17:08;;;;;;;10.80;6.60;;;;;;;;;;5109918;27;20493;-79
2021/10/08 06:19:35;;;;;;;8.37;5.10;;;;;;;;;;5116074;27;20506;-79
2021/10/08 06:22:02;;;;;;;8.23;5.67;;;;;;;;;;5101369;28;20512;-80
2021/10/08 06:24:29;;;;;;;12.53;7.17;;;;;;;;;;5102564;28;20447;-79
2021/10/08 06:26:56;;;;;;;9.80;6.13;;;;;;;;;;5104944;28;20479;-80
2021/10/08 06:29:24;;;;;;;9.20;7.07;;;;;;;;;;5108522;28;20438;-79
2021/10/08 06:31:52;;;;;;;10.70;7.30;;;;;;;;;;5087642;28;20451;-79
2021/10/08 06:34:19;;;;;;;12.20;6.90;;;;;;;;;;5114306;27;20460;-81
2021/10/08 06:36:46;;;;;;;12.77;8.00;;;;;;;;;;5116995;28;20854;-80
2021/10/08 06:39:13;;;;;;;12.03;6.07;;;;;;;;;;5109107;27;20448;-80
2021/10/08 06:41:42;;;;;;;8.60;6.40;;;;;;;;;;5122234;27;20520;-78
2021/10/08 06:44:09;;;;;;;8.77;6.13;;;;;;;;;;5105686;28;20447;-81
2021/10/08 06:46:36;;;;;;;8.43;6.20;;;;;;;;;;5105353;28;20455;-79
2021/10/08 06:49:07;;;;;;;11.67;8.70;;;;;;;;;;5104104;28;20440;-81
2021/10/08 06:51:36;;;;;;;7.77;6.10;;;;;;;;;;5105617;28;20456;-80
2021/10/08 06:54:04;;;;;;;8.73;6.80;;;;;;;;;;5103585;28;20448;-79
2021/10/08 06:56:31;;;;;;;8.37;6.17;;;;;;;;;;5107961;28;20483;-80
2021/10/08 06:58:58;;;;;;;11.73;7.07;;;;;;;;;;5098319;28;20632;-79
2021/10/08 07:01:25;;;;;;;8.80;6.67;;;;;;;;;;5107309;28;20448;-80
2021/10/08 07:03:52;;;;;;;11.50;6.07;;;;;;;;;;5125493;27;20456;-81
2021/10/08 07:06:20;;;;;;;8.43;6.23;;;;;;;;;;5123343;27;20474;-80
2021/10/08 07:08:47;;;;;;;9.53;6.83;;;;;;;;;;5106119;28;20555;-81
2021/10/08 07:11:14;;;;;;;8.80;6.73;;;;;;;;;;5100541;28;20459;-79
2021/10/08 07:13:41;;;;;;;7.73;5.70;;;;;;;;;;5102195;28;20501;-82
2021/10/08 07:16:08;;;;;;;12.03;7.57;;;;;;;;;;5102744;28;20479;-81
2021/10/08 07:18:38;;;;;;;11.60;6.53;;;;;;;;;;5099991;28;20471;-80
2021/10/08 07:21:06;;;;;;;8.83;7.43;;;;;;;;;;5098154;28;20451;-80
2021/10/08 07:23:34;;;;;;;9.17;5.53;;;;;;;;;;5102514;27;20444;-81
2021/10/08 07:26:04;;;;;;;9.17;5.70;;;;;;;;;;5095368;28;20456;-80
2021/10/08 07:28:48;;;;;;;9.47;5.77;;;;;;;;;;5087803;28;20445;-81
2021/10/08 07:34:29;;;;;;;9.13;5.73;;;;;;;;;;5094880;28;20501;-80
2021/10/08 07:36:58;;;;;;;8.13;6.53;;;;;;;;;;5101608;28;20466;-80
2021/10/08 07:39:26;;;;;;;13.17;9.60;;;;;;;;;;5097376;28;20453;-81
2021/10/08 07:41:54;;;;;;;11.60;6.50;;;;;;;;;;5102392;27;21952;-82
2021/10/08 07:44:23;;;;;;;12.40;8.53;;;;;;;;;;5118524;27;20710;-80
2021/10/08 07:46:51;;;;;;;10.70;7.47;;;;;;;;;;5105281;28;20483;-80
2021/10/08 07:49:18;;;;;;;11.83;7.77;;;;;;;;;;5097813;28;20534;-80
2021/10/08 07:51:46;;;;;;;11.40;9.10;;;;;;;;;;5097922;28;20471;-81
2021/10/08 07:54:17;;;;;;;11.20;7.27;;;;;;;;;;5096070;28;20520;-80
2021/10/08 07:56:45;;;;;;;12.40;8.00;;;;;;;;;;5093444;28;20918;-80
2021/10/08 07:59:12;;;;;;;10.73;8.03;;;;;;;;;;5101471;28;20558;-79
2021/10/08 08:01:39;;;;;;;8.97;7.10;;;;;;;;;;5088279;28;20504;-81
2021/10/08 08:04:06;;;;;;;12.40;8.70;;;;;;;;;;5085820;28;20472;-80
2021/10/08 08:06:33;;;;;;;9.10;6.50;;;;;;;;;;5101648;28;20467;-80
2021/10/08 08:09:00;;;;;;;13.30;9.27;;;;;;;;;;5100499;28;20451;-80
2021/10/08 08:11:30;;;;;;;8.43;6.30;;;;;;;;;;5095279;28;20471;-80
2021/10/08 08:13:58;;;;;;;11.77;8.17;;;;;;;;;;5100153;28;20448;-81
2021/10/08 08:16:26;;;;;;;8.80;7.03;;;;;;;;;;5102207;28;20487;-79
2021/10/08 08:18:53;;;;;;;11.50;8.40;;;;;;;;;;5101938;28;20461;-80
2021/10/08 08:21:22;;;;;;;11.87;8.50;;;;;;;;;;5107025;28;20511;-80
2021/10/08 08:23:51;;;;;;;9.63;7.40;;;;;;;;;;5104352;28;20520;-79
2021/10/08 08:26:18;;;;;;;11.40;8.00;;;;;;;;;;5099491;28;20851;-80
2021/10/08 08:28:45;;;;;;;18.13;11.20;;;;;;;;;;5104730;28;20452;-80
2021/10/08 08:31:13;;;;;;;14.70;9.90;;;;;;;;;;5095703;27;20455;-79
2021/10/08 08:33:40;;;;;;;15.03;9.03;;;;;;;;;;5090221;28;20478;-80
2021/10/08 08:36:07;;;;;;;10.97;8.33;;;;;;;;;;5096556;28;20526;-78
2021/10/08 08:38:34;;;;;;;9.83;7.37;;;;;;;;;;5093896;28;21027;-79
2021/10/08 08:41:01;;;;;;;9.90;8.17;;;;;;;;;;5101988;28;20463;-80
2021/10/08 08:43:28;;;;;;;9.40;7.47;;;;;;;;;;5104091;28;20456;-80
2021/10/08 08:45:55;;;;;;;13.63;9.10;;;;;;;;;;5103372;28;20868;-78
2021/10/08 08:48:23;;;;;;;9.90;8.40;;;;;;;;;;5101203;28;20966;-80
2021/10/08 08:50:51;;;;;;;13.40;6.87;;;;;;;;;;5103240;28;20464;-78
2021/10/08 08:53:20;;;;;;;11.30;9.53;;;;;;;;;;5096904;28;20454;-79
2021/10/08 08:55:48;;;;;;;8.87;6.47;;;;;;;;;;5103296;28;20512;-80
2021/10/08 08:58:15;;;;;;;9.93;8.23;;;;;;;;;;5102047;28;20894;-79
2021/10/08 09:00:45;;;;;;;11.00;7.20;;;;;;;;;;5103173;28;20882;-79
2021/10/08 09:03:13;;;;;;;13.00;7.90;;;;;;;;;;5104806;28;20459;-80
2021/10/08 09:05:46;;;;;;;11.20;7.60;;;;;;;;;;5103883;28;20451;-79
2021/10/08 09:08:13;;;;;;;8.30;6.47;;;;;;;;;;5108366;28;20649;-80
2021/10/08 09:10:42;;;;;;;10.53;7.93;;;;;;;;;;5095333;28;20794;-79
2021/10/08 09:13:10;;;;;;;10.83;8.50;;;;;;;;;;5105297;27;20492;-79
2021/10/08 09:15:48;;;;;;;9.20;7.03;;;;;;;;;;5096531;28;20531;-79
2021/10/08 09:18:16;;;;;;;10.80;7.57;;;;;;;;;;5098879;28;20543;-79
2021/10/08 09:20:58;;;;;;;11.60;7.80;;;;;;;;;;5095972;28;20713;-80
2021/10/08 09:23:31;;;;;;;7.30;6.60;;;;;;;;;;5099597;28;20477;-80
2021/10/08 09:25:58;;;;;;;9.73;7.90;;;;;;;;;;5098093;28;20467;-79
2021/10/08 09:28:25;;;;;;;9.30;6.90;;;;;;;;;;5107310;28;20519;-80
2021/10/08 09:30:54;;;;;;;9.00;6.80;;;;;;;;;;5107110;28;20458;-80
2021/10/08 09:33:24;;;;;;;6.67;5.97;;;;;;;;;;5097493;28;20452;-80
2021/10/08 09:35:56;;;;;;;9.47;6.53;;;;;;;;;;5105639;28;20508;-79
2021/10/08 09:38:23;;;;;;;10.83;8.10;;;;;;;;;;5100937;28;20845;-79
2021/10/08 09:40:56;;;;;;;7.50;6.63;;;;;;;;;;5101047;28;20460;-79
2021/10/08 09:43:27;;;;;;;10.10;7.17;;;;;;;;;;5104210;28;20451;-80
2021/10/08 09:45:55;;;;;;;7.93;6.90;;;;;;;;;;5102453;28;20564;-80
2021/10/08 09:48:23;;;;;;;10.17;7.83;;;;;;;;;;5101781;28;20540;-79
2021/10/08 09:50:58;;;;;;;7.40;5.93;;;;;;;;;;5102539;28;20550;-79
2021/10/08 09:53:26;;;;;;;8.90;5.57;;;;;;;;;;5102366;28;20593;-81
2021/10/08 09:55:54;;;;;;;8.30;6.40;;;;;;;;;;5104108;28;20576;-81
2021/10/08 09:58:24;;;;;;;8.40;6.50;;;;;;;;;;5112019;28;20570;-81
2021/10/08 10:03:39;;;;;;;11.30;7.70;;;;;;;;;;5105957;28;20435;-80
2021/10/08 10:06:06;;;;;;;11.20;7.30;;;;;;;;;;5102849;28;20471;-79
2021/10/08 10:08:34;;;;;;;10.70;9.17;;;;;;;;;;5103572;28;20443;-80
2021/10/08 10:11:03;;;;;;;8.73;6.80;;;;;;;;;;5096695;28;20474;-79
2021/10/08 10:13:32;;;;;;;14.60;9.50;;;;;;;;;;5101900;28;20916;-79
2021/10/08 10:16:01;;;;;;;6.83;6.00;;;;;;;;;;5102792;28;20448;-79
2021/10/08 10:18:28;;;;;;;8.73;6.20;;;;;;;;;;5105165;28;20512;-80
2021/10/08 10:20:55;;;;;;;10.00;6.70;;;;;;;;;;5102148;28;20483;-79
2021/10/08 10:23:25;;;;;;;8.90;6.20;;;;;;;;;;5102647;28;20456;-79
2021/10/08 10:25:54;;;;;;;9.37;7.80;;;;;;;;;;5101484;28;20478;-78
2021/10/08 10:28:23;;;;;;;8.07;6.43;;;;;;;;;;5102892;28;20519;-78
2021/10/08 10:30:52;;;;;;;10.77;9.63;;;;;;;;;;5103238;28;20455;-78
2021/10/08 10:33:27;;;;;;;11.07;8.37;;;;;;;;;;5104171;28;20502;-80
2021/10/08 10:35:56;;;;;;;9.33;7.30;;;;;;;;;;5104846;28;20523;-80
2021/10/08 10:38:37;;;;;;;10.20;8.10;;;;;;;;;;5105028;28;20622;-79
2021/10/08 10:41:31;;;;;;;18.27;12.77;;;;;;;;;;5101880;28;20766;-79
2021/10/08 10:44:19;;;;;;;9.37;6.67;;;;;;;;;;5113595;28;20553;-79
2021/10/08 10:46:51;;;;;;;10.10;8.03;;;;;;;;;;5110091;28;20863;-80
2021/10/08 10:49:38;;;;;;;10.40;8.53;;;;;;;;;;5105236;28;20748;-80
2021/10/08 10:52:15;;;;;;;14.13;11.33;;;;;;;;;;5111016;28;20799;-79
2021/10/08 10:55:02;;;;;;;10.07;8.43;;;;;;;;;;5104893;28;20443;-79
2021/10/08 10:57:47;;;;;;;11.47;9.47;;;;;;;;;;5106320;28;20476;-80
2021/10/08 11:00:32;;;;;;;10.43;8.13;;;;;;;;;;5117521;27;20451;-81
2021/10/08 11:03:11;;;;;;;11.20;8.80;;;;;;;;;;5100610;28;20481;-79
2021/10/08 11:05:39;;;;;;;12.67;10.40;;;;;;;;;;5105921;28;20492;-81
2021/10/08 11:08:13;;;;;;;14.00;10.23;;;;;;;;;;5103849;28;20948;-81
2021/10/08 11:10:44;;;;;;;14.20;10.50;;;;;;;;;;5102612;28;20476;-81
2021/10/08 11:13:24;;;;;;;11.50;9.40;;;;;;;;;;5113324;28;20450;-78
2021/10/08 11:15:55;;;;;;;10.93;8.90;;;;;;;;;;5103966;28;20475;-80
2021/10/08 11:18:53;;;;;;;12.90;10.43;;;;;;;;;;5102423;28;20526;-79
2021/10/08 11:21:52;;;;;;;14.67;11.77;;;;;;;;;;5093060;28;20683;-80
2021/10/08 11:24:22;;;;;;;15.87;12.23;;;;;;;;;;5025499;28;20761;-80
2021/10/08 11:26:56;;;;;;;16.20;12.50;;;;;;;;;;5083731;28;20452;-80
2021/10/08 11:29:24;;;;;;;18.93;12.87;;;;;;;;;;5098761;28;20881;-80
2021/10/08 11:32:08;;;;;;;14.73;11.27;;;;;;;;;;5099806;28;20558;-81
2021/10/08 11:34:47;;;;;;;13.80;10.27;;;;;;;;;;5084163;28;20444;-79
2021/10/08 11:37:16;;;;;;;17.20;11.10;;;;;;;;;;5103431;28;20502;-79
2021/10/08 11:39:50;;;;;;;14.43;11.43;;;;;;;;;;5105930;28;20439;-79
2021/10/08 11:42:20;;;;;;;17.97;11.97;;;;;;;;;;5113256;27;20452;-81
2021/10/08 11:44:59;;;;;;;16.50;14.23;;;;;;;;;;5102807;28;20440;-80
2021/10/08 11:47:30;;;;;;;16.33;11.40;;;;;;;;;;5101695;28;20457;-80
2021/10/08 11:50:05;;;;;;;14.90;10.87;;;;;;;;;;5103107;28;20881;-79
2021/10/08 11:52:35;;;;;;;18.33;13.30;;;;;;;;;;5104060;28;20695;-79
2021/10/08 11:55:13;;;;;;;21.30;15.37;;;;;;;;;;5104164;28;20444;-79
2021/10/08 11:57:51;;;;;;;17.30;13.20;;;;;;;;;;5101788;28;20479;-79
2021/10/08 12:00:19;;;;;;;21.03;14.30;;;;;;;;;;5098419;28;20456;-80
2021/10/08 12:02:56;;;;;;;20.37;14.77;;;;;;;;;;5103824;28;20764;-79
2021/10/08 12:05:23;;;;;;;27.80;18.10;;;;;;;;;;5115238;27;20452;-79
2021/10/08 12:08:01;;;;;;;18.80;13.57;;;;;;;;;;5114764;28;20455;-79
2021/10/08 12:10:29;;;;;;;24.53;15.67;;;;;;;;;;5097638;28;20459;-78
2021/10/08 12:12:57;;;;;;;21.17;15.43;;;;;;;;;;5096501;28;20455;-79
2021/10/08 12:15:25;;;;;;;21.47;15.63;;;;;;;;;;5096348;28;20448;-80
2021/10/08 12:17:54;;;;;;;22.70;15.47;;;;;;;;;;5084729;28;20484;-80
2021/10/08 12:20:23;;;;;;;20.57;13.00;;;;;;;;;;5115435;27;21050;-79
2021/10/08 12:22:50;;;;;;;19.50;13.80;;;;;;;;;;5101077;28;20502;-80
2021/10/08 12:25:18;;;;;;;24.50;17.60;;;;;;;;;;5099701;28;20443;-79
2021/10/08 12:27:49;;;;;;;21.03;14.93;;;;;;;;;;5111082;28;20455;-81
2021/10/08 12:30:16;;;;;;;21.10;16.23;;;;;;;;;;5112870;28;20455;-80
2021/10/08 12:33:00;;;;;;;24.63;16.20;;;;;;;;;;5101699;28;20559;-78
2021/10/08 12:35:27;;;;;;;22.60;15.93;;;;;;;;;;5109466;27;20452;-79
2021/10/08 12:37:59;;;;;;;24.60;16.87;;;;;;;;;;5098430;28;20488;-79
2021/10/08 12:40:26;;;;;;;20.37;15.17;;;;;;;;;;5105368;28;20509;-79
2021/10/08 12:42:56;;;;;;;22.80;15.57;;;;;;;;;;5103469;28;20475;-79
2021/10/08 12:45:25;;;;;;;25.43;15.70;;;;;;;;;;5097462;28;20459;-80
2021/10/08 12:47:52;;;;;;;21.47;15.80;;;;;;;;;;5095627;28;20467;-79
2021/10/08 12:50:20;;;;;;;23.70;16.60;;;;;;;;;;5092029;28;20507;-79
2021/10/08 12:52:49;;;;;;;21.43;16.00;;;;;;;;;;5094891;27;20516;-80
2021/10/08 12:55:19;;;;;;;24.30;17.60;;;;;;;;;;5096218;28;20440;-80
2021/10/08 12:58:08;;;;;;;23.63;16.50;;;;;;;;;;5093520;28;20508;-79
2021/10/08 13:00:47;;;;;;;26.57;17.70;;;;;;;;;;5092568;28;20471;-80
2021/10/08 13:03:33;;;;;;;26.40;18.97;;;;;;;;;;5099118;28;20440;-79
2021/10/08 13:06:07;;;;;;;22.70;17.30;;;;;;;;;;5096138;28;20451;-79
2021/10/08 13:08:39;;;;;;;26.23;20.10;;;;;;;;;;5097203;28;20443;-79
2021/10/08 13:11:09;;;;;;;27.00;19.63;;;;;;;;;;5089330;28;20463;-79
2021/10/08 13:13:37;;;;;;;38.83;21.03;;;;;;;;;;5088897;28;20464;-80
2021/10/08 13:16:09;;;;;;;28.23;18.67;;;;;;;;;;5083067;28;20467;-79
2021/10/08 13:18:40;;;;;;;25.23;17.00;;;;;;;;;;5091999;28;20601;-80
2021/10/08 13:21:10;;;;;;;26.70;17.73;;;;;;;;;;5102650;28;20481;-81
2021/10/08 13:23:38;;;;;;;25.20;18.20;;;;;;;;;;5118121;27;20451;-80
2021/10/08 13:26:05;;;;;;;27.17;18.03;;;;;;;;;;5097633;28;20891;-80
2021/10/08 13:28:33;;;;;;;26.93;18.53;;;;;;;;;;5117737;28;20440;-80
2021/10/08 13:31:03;;;;;;;32.00;20.87;;;;;;;;;;5102694;28;20459;-78
2021/10/08 13:33:32;;;;;;;29.67;20.30;;;;;;;;;;5109313;28;20448;-79
2021/10/08 13:36:18;;;;;;;28.20;17.90;;;;;;;;;;5106042;28;20448;-81
2021/10/08 13:38:45;;;;;;;26.30;19.10;;;;;;;;;;5101635;28;20756;-79
2021/10/08 13:41:19;;;;;;;28.30;19.30;;;;;;;;;;5101993;28;20459;-82
2021/10/08 13:43:46;;;;;;;33.70;19.37;;;;;;;;;;5101056;28;20491;-80
2021/10/08 13:46:13;;;;;;;27.73;18.30;;;;;;;;;;5098679;28;20456;-80
2021/10/08 13:48:41;;;;;;;27.90;20.17;;;;;;;;;;5089490;28;20448;-79
2021/10/08 13:51:09;;;;;;;25.60;17.67;;;;;;;;;;5096131;28;20460;-79
2021/10/08 13:53:36;;;;;;;29.00;19.93;;;;;;;;;;5098620;28;20451;-81
2021/10/08 13:56:03;;;;;;;24.47;16.43;;;;;;;;;;5103766;28;20762;-79
2021/10/08 13:58:30;;;;;;;24.97;18.70;;;;;;;;;;5099945;28;20970;-78
2021/10/08 14:00:59;;;;;;;25.70;16.40;;;;;;;;;;5105572;28;20444;-78
2021/10/08 14:10:15;;;;;;;25.50;17.20;;;;;;;;;;5103896;28;20547;-80
2021/10/08 14:12:11;;;;;;;27.43;18.60;;;;;;;;;;5108436;28;20444;-79
2021/10/08 14:14:41;;;;;;;27.50;16.77;;;;;;;;;;5100629;28;20531;-79
2021/10/08 14:17:08;;;;;;;25.13;17.60;;;;;;;;;;5104626;28;20517;-79
2021/10/08 14:19:35;;;;;;;26.47;18.67;;;;;;;;;;5094807;28;20574;-79
2021/10/08 14:22:03;;;;;;;28.03;19.47;;;;;;;;;;5107451;27;20539;-79
2021/10/08 14:24:34;;;;;;;24.17;14.87;;;;;;;;;;5103794;28;20458;-79
2021/10/08 14:27:02;;;;;;;23.90;16.80;;;;;;;;;;5087472;28;20440;-80
2021/10/08 14:29:29;;;;;;;23.97;17.30;;;;;;;;;;5112983;28;20446;-80
2021/10/08 14:31:56;;;;;;;23.70;16.93;;;;;;;;;;5104991;27;21148;-80
2021/10/08 14:34:23;;;;;;;21.43;17.60;;;;;;;;;;5106689;28;20472;-81
2021/10/08 14:36:53;;;;;;;25.60;17.70;;;;;;;;;;5114386;28;20452;-78
2021/10/08 14:39:23;;;;;;;21.70;16.10;;;;;;;;;;5108673;28;20525;-79
2021/10/08 14:41:50;;;;;;;22.77;15.70;;;;;;;;;;5107300;28;20546;-80
2021/10/08 14:44:17;;;;;;;23.27;16.37;;;;;;;;;;5104077;28;20449;-80
2021/10/08 14:46:44;;;;;;;23.57;16.43;;;;;;;;;;5107172;28;20713;-79
2021/10/08 14:49:11;;;;;;;19.97;16.20;;;;;;;;;;5104227;28;20462;-80
2021/10/08 14:51:43;;;;;;;22.10;16.80;;;;;;;;;;5102985;28;20554;-80
2021/10/08 14:54:22;;;;;;;20.80;13.63;;;;;;;;;;5105711;28;20440;-80
2021/10/08 14:57:11;;;;;;;21.73;15.67;;;;;;;;;;5107081;28;20450;-79